Terminal Aerodrome Forecast
Issued by NWS

Home | Current Version | Previous Version | Text Only | Print | Product List | Glossary Off
Versions: 1 2 3 4 5 6 7 8 9 10 11 12 13 14 15 16 17 18 19 20 21 22 23 24 25 26 27

000
FTUS43 KBIS 231100
TAFDIK
TAF
KDIK 231132Z 2312/2412 08015G22KT 2SM -SHRA OVC004
     FM231600 05015G22KT 2SM +SHRA BR VCTS OVC004CB
     FM240200 03012KT 5SM -SHRA BR OVC002
     FM240600 27010KT 5SM BR OVC004=

USA.gov is the U.S. government's official web portal to all federal, state and local government web resources and services.